createdAt,value
2018-08-16T04:00:33.213Z,5.20
2018-08-16T04:03:02.202Z,5.23
2018-08-16T04:05:31.091Z,6.20
2018-08-16T04:07:59.959Z,5.70
2018-08-16T04:10:28.728Z,5.80
2018-08-16T04:12:58.524Z,4.70
2018-08-16T04:15:27.543Z,5.07
2018-08-16T04:17:57.256Z,6.60
2018-08-16T04:20:27.039Z,5.00
2018-08-16T04:22:56.932Z,4.97
2018-08-16T04:25:27.839Z,5.87
2018-08-16T04:27:58.465Z,5.23
2018-08-16T04:30:28.443Z,5.17
2018-08-16T04:32:57.595Z,5.20
2018-08-16T04:35:27.307Z,5.07
2018-08-16T04:37:56.405Z,5.20
2018-08-16T04:40:25.528Z,5.50
2018-08-16T04:42:54.818Z,5.57
2018-08-16T04:45:24.420Z,5.07
2018-08-16T04:47:54.362Z,6.27
2018-08-16T04:50:25.247Z,4.47
2018-08-16T04:52:55.164Z,4.67
2018-08-16T04:55:25.091Z,5.33
2018-08-16T04:57:55.515Z,4.90
2018-08-16T05:00:24.840Z,5.30
2018-08-16T05:02:53.676Z,6.67
2018-08-16T05:05:22.662Z,5.00
2018-08-16T05:07:52.127Z,4.23
2018-08-16T05:10:20.976Z,3.93
2018-08-16T05:12:49.830Z,5.07
2018-08-16T05:15:19.708Z,5.00
2018-08-16T05:17:49.624Z,5.17
2018-08-16T05:20:19.547Z,5.80
2018-08-16T05:22:49.298Z,4.93
2018-08-16T05:25:19.041Z,4.20
2018-08-16T05:27:49.960Z,4.70
2018-08-16T05:30:20.737Z,5.60
2018-08-16T05:32:50.695Z,3.97
2018-08-16T05:35:20.500Z,4.47
2018-08-16T05:37:50.387Z,4.50
2018-08-16T05:40:21.590Z,4.33
2018-08-16T05:42:52.749Z,5.60
2018-08-16T05:45:22.944Z,4.23
2018-08-16T05:47:52.786Z,5.60
2018-08-16T05:50:22.651Z,4.00
2018-08-16T05:52:53.220Z,4.80
2018-08-16T05:55:24.237Z,4.83
2018-08-16T05:57:55.151Z,3.80
2018-08-16T06:00:25.054Z,4.17
2018-08-16T06:02:54.879Z,5.07
2018-08-16T06:05:23.910Z,4.50
2018-08-16T06:07:54.576Z,4.03
2018-08-16T06:10:23.475Z,5.13
2018-08-16T06:12:53.234Z,4.70
2018-08-16T06:15:23.113Z,4.77
2018-08-16T06:17:52.915Z,5.20
2018-08-16T06:20:23.516Z,4.27
2018-08-16T06:22:53.486Z,4.40
2018-08-16T06:25:24.299Z,4.10
2018-08-16T06:27:54.013Z,3.57
2018-08-16T06:30:23.987Z,3.97
2018-08-16T06:32:53.678Z,4.20
2018-08-16T06:35:24.708Z,4.07
2018-08-16T06:37:54.544Z,4.20
2018-08-16T06:40:24.171Z,4.80
2018-08-16T06:42:53.209Z,4.87
2018-08-16T06:45:22.004Z,4.57
2018-08-16T06:47:51.627Z,4.20
2018-08-16T06:50:20.655Z,4.27
2018-08-16T06:52:49.430Z,3.80
2018-08-16T06:55:18.591Z,4.00
2018-08-16T06:57:48.263Z,3.70
2018-08-16T07:00:17.522Z,4.00
2018-08-16T07:02:47.898Z,3.70
2018-08-16T07:05:17.683Z,3.70
2018-08-16T07:07:47.505Z,4.70
2018-08-16T07:10:17.371Z,3.50
2018-08-16T07:12:46.963Z,3.37
2018-08-16T07:15:16.556Z,3.10
2018-08-16T07:17:45.939Z,2.87
2018-08-16T07:20:16.419Z,2.97
2018-08-16T07:22:46.502Z,3.00
2018-08-16T07:25:17.204Z,2.77
2018-08-16T07:27:47.313Z,2.73
2018-08-16T07:30:17.138Z,2.90
2018-08-16T07:32:46.973Z,2.40
2018-08-16T07:35:16.804Z,2.20
2018-08-16T07:37:47.244Z,2.10
2018-08-16T07:40:17.495Z,2.80
2018-08-16T07:42:47.276Z,1.97
2018-08-16T07:45:17.100Z,2.30
2018-08-16T07:47:46.996Z,1.50
2018-08-16T07:50:16.671Z,1.80
2018-08-16T07:52:46.415Z,1.90
2018-08-16T07:55:16.576Z,1.80
2018-08-16T07:57:46.399Z,1.47
2018-08-16T08:00:20.973Z,1.60
2018-08-16T08:02:51.711Z,1.40
2018-08-16T08:05:21.982Z,1.40
2018-08-16T08:07:51.781Z,1.50
2018-08-16T08:10:21.648Z,1.50
2018-08-16T08:12:52.165Z,1.50
2018-08-16T08:15:22.263Z,1.07
2018-08-16T08:17:51.768Z,1.27
2018-08-16T08:20:21.956Z,1.20
2018-08-16T08:22:51.740Z,1.37
2018-08-16T08:25:21.735Z,1.13
2018-08-16T08:27:51.128Z,1.23
2018-08-16T08:30:21.349Z,1.60
2018-08-16T08:32:51.215Z,1.20
2018-08-16T08:35:21.035Z,1.23
2018-08-16T08:38:00.994Z,1.07
2018-08-16T08:40:30.833Z,1.50
2018-08-16T08:43:00.664Z,1.80
2018-08-16T08:45:30.511Z,1.10
2018-08-16T08:48:00.341Z,1.70
2018-08-16T08:50:30.182Z,1.23
2018-08-16T08:53:11.037Z,1.10
2018-08-16T08:55:51.119Z,1.30
2018-08-16T08:58:31.082Z,1.43
2018-08-16T09:01:00.870Z,0.90
2018-08-16T09:03:31.762Z,1.33
2018-08-16T09:06:01.397Z,1.70
2018-08-16T09:08:33.371Z,1.43
2018-08-16T09:11:15.450Z,1.13
2018-08-16T09:13:58.436Z,1.50
2018-08-16T09:16:35.370Z,2.20
2018-08-16T09:19:05.233Z,1.20
2018-08-16T09:21:35.129Z,1.50
2018-08-16T09:24:04.730Z,0.93
2018-08-16T09:26:39.560Z,1.13
2018-08-16T09:31:23.262Z,1.07
2018-08-16T09:34:10.305Z,1.57
2018-08-16T09:36:40.028Z,1.50
2018-08-16T09:39:09.968Z,1.60
2018-08-16T09:41:39.828Z,1.60
2018-08-16T09:44:09.392Z,1.37
2018-08-16T09:46:52.378Z,1.30
2018-08-16T09:49:22.483Z,1.60
2018-08-16T09:51:52.335Z,1.57
2018-08-16T09:54:22.139Z,1.40
2018-08-16T09:56:53.049Z,1.27
2018-08-16T09:59:22.896Z,1.60
2018-08-16T10:01:53.567Z,1.13
2018-08-16T10:04:24.263Z,1.10
2018-08-16T10:06:54.436Z,1.37
2018-08-16T10:09:27.299Z,0.90
2018-08-16T10:11:58.092Z,1.00
2018-08-16T10:14:27.945Z,1.23
2018-08-16T10:16:57.715Z,1.13
2018-08-16T10:19:28.627Z,1.60
2018-08-16T10:21:59.411Z,1.53
2018-08-16T10:24:30.345Z,1.07
2018-08-16T10:27:01.175Z,1.83
2018-08-16T10:29:31.139Z,1.60
2018-08-16T10:32:00.948Z,1.37
2018-08-16T10:34:31.708Z,0.80
2018-08-16T10:37:02.619Z,1.23
2018-08-16T10:39:33.456Z,1.60
2018-08-16T10:42:04.057Z,1.10
2018-08-16T10:44:33.997Z,1.50
2018-08-16T10:47:03.780Z,1.13
2018-08-16T10:49:34.923Z,1.47
2018-08-16T10:52:04.756Z,0.97
2018-08-16T10:54:34.591Z,1.03
2018-08-16T10:57:04.431Z,1.10
2018-08-16T10:59:34.337Z,0.97
2018-08-16T11:02:04.852Z,1.20
2018-08-16T11:04:34.882Z,1.60
2018-08-16T11:07:04.816Z,0.93
2018-08-16T11:09:35.629Z,1.20
2018-08-16T11:12:05.556Z,1.13
2018-08-16T11:14:36.164Z,1.20
2018-08-16T11:17:06.127Z,1.40
2018-08-16T11:19:36.028Z,1.20
2018-08-16T11:22:06.576Z,0.90
2018-08-16T11:24:36.771Z,0.90
2018-08-16T11:27:07.528Z,1.40
2018-08-16T11:29:38.432Z,0.70
2018-08-16T11:32:08.284Z,1.10
2018-08-16T11:34:38.142Z,1.57
2018-08-16T11:37:09.094Z,1.27
2018-08-16T11:39:38.823Z,1.10
2018-08-16T11:42:09.391Z,1.00
2018-08-16T11:44:39.410Z,1.50
2018-08-16T11:47:09.295Z,0.80
2018-08-16T11:49:39.697Z,0.83
2018-08-16T11:52:10.676Z,0.90
2018-08-16T11:54:41.631Z,1.00
2018-08-16T11:57:12.755Z,1.00
2018-08-16T11:59:42.565Z,1.20
2018-08-16T12:02:12.513Z,1.23
2018-08-16T12:04:43.223Z,0.83
2018-08-16T12:07:13.124Z,1.00
2018-08-16T12:09:42.948Z,1.37
2018-08-16T12:12:12.799Z,0.90
2018-08-16T12:14:42.598Z,1.13
2018-08-16T12:17:12.471Z,1.30
2018-08-16T12:19:42.278Z,1.07
2018-08-16T12:22:12.171Z,1.10
2018-08-16T12:24:41.911Z,1.33
2018-08-16T12:27:12.751Z,1.00
2018-08-16T12:29:42.680Z,1.67
2018-08-16T12:32:12.507Z,1.20
2018-08-16T12:34:42.388Z,1.43
2018-08-16T12:37:13.135Z,1.20
2018-08-16T12:39:43.945Z,1.13
2018-08-16T12:42:13.966Z,1.37
2018-08-16T12:44:45.188Z,1.30
2018-08-16T12:47:14.602Z,1.50
2018-08-16T12:49:45.356Z,1.40
2018-08-16T12:52:16.029Z,1.47
2018-08-16T12:54:46.132Z,1.20
2018-08-16T12:57:16.756Z,1.50
2018-08-16T12:59:46.737Z,1.30
2018-08-16T13:02:16.689Z,1.37
2018-08-16T13:04:46.514Z,1.73
2018-08-16T13:07:17.182Z,1.60
2018-08-16T13:09:47.948Z,2.10
2018-08-16T13:12:18.703Z,1.30
2018-08-16T13:14:48.900Z,1.90
2018-08-16T13:17:19.630Z,1.80
2018-08-16T13:19:49.617Z,1.73
2018-08-16T13:22:19.447Z,1.70
2018-08-16T13:24:49.205Z,1.30
2018-08-16T13:27:19.133Z,2.10
2018-08-16T13:29:48.797Z,1.50
2018-08-16T13:32:20.837Z,1.77
2018-08-16T13:34:50.707Z,1.37
2018-08-16T13:37:20.524Z,1.60
2018-08-16T13:39:50.268Z,2.00
2018-08-16T13:42:20.128Z,1.53
2018-08-16T13:44:50.032Z,1.60
2018-08-16T13:47:19.846Z,1.70
2018-08-16T13:49:49.692Z,1.60
2018-08-16T13:52:20.260Z,1.70
2018-08-16T13:54:50.373Z,2.00
2018-08-16T13:57:20.217Z,1.67
2018-08-16T13:59:50.016Z,1.70
2018-08-16T14:02:20.614Z,1.50
2018-08-16T14:04:50.723Z,2.30
2018-08-16T14:07:20.551Z,1.50
2018-08-16T14:09:50.435Z,2.13
2018-08-16T14:12:20.253Z,1.60
2018-08-16T14:14:50.046Z,1.87
2018-08-16T14:17:19.915Z,1.70
2018-08-16T14:19:49.744Z,1.20
2018-08-16T14:22:20.299Z,1.57
2018-08-16T14:24:50.448Z,1.90
2018-08-16T14:27:21.415Z,1.90
2018-08-16T14:29:52.364Z,1.53
2018-08-16T14:32:22.064Z,1.67
2018-08-16T14:34:51.824Z,1.47
2018-08-16T14:37:22.579Z,2.20
2018-08-16T14:39:52.480Z,1.70
2018-08-16T14:42:22.319Z,2.07
2018-08-16T14:44:52.665Z,2.00
2018-08-16T14:47:23.021Z,1.60
2018-08-16T14:49:52.851Z,1.97
2018-08-16T14:52:22.653Z,2.17
2018-08-16T14:54:53.273Z,1.30
2018-08-16T14:57:23.355Z,1.80
2018-08-16T14:59:54.089Z,1.93
2018-08-16T15:02:23.888Z,1.63
2018-08-16T15:04:53.743Z,2.13
2018-08-16T15:07:25.656Z,1.90
2018-08-16T15:09:55.552Z,2.07
2018-08-16T15:12:25.312Z,2.10
2018-08-16T15:14:55.244Z,1.67
2018-08-16T15:17:25.069Z,1.70
2018-08-16T15:19:55.676Z,1.87
2018-08-16T15:22:26.698Z,1.60
2018-08-16T15:24:56.579Z,2.00
2018-08-16T15:27:26.282Z,1.30
2018-08-16T15:29:56.927Z,1.30
2018-08-16T15:32:27.428Z,2.10
2018-08-16T15:34:56.943Z,2.03
2018-08-16T15:37:26.785Z,1.97
2018-08-16T15:39:56.642Z,1.57
2018-08-16T15:42:27.444Z,1.47
2018-08-16T15:44:57.247Z,1.70
2018-08-16T15:47:27.030Z,1.50
2018-08-16T15:49:57.877Z,2.10
2018-08-16T15:52:27.744Z,1.80
2018-08-16T15:54:57.529Z,1.83
2018-08-16T15:57:28.185Z,1.70
2018-08-16T15:59:59.034Z,2.00
2018-08-16T16:02:29.151Z,1.93
2018-08-16T16:04:58.965Z,2.03
2018-08-16T16:07:28.796Z,1.80
2018-08-16T16:09:58.479Z,2.67
2018-08-16T16:12:29.087Z,1.80
2018-08-16T16:14:59.292Z,2.00
2018-08-16T16:17:29.159Z,1.67
2018-08-16T16:19:58.911Z,2.80
2018-08-16T16:22:28.878Z,1.50
2018-08-16T16:24:58.756Z,1.70
2018-08-16T16:27:28.479Z,1.63
2018-08-16T16:29:58.313Z,1.97
2018-08-16T16:32:28.153Z,1.90
2018-08-16T16:34:57.987Z,1.90
2018-08-16T16:37:27.759Z,2.20
2018-08-16T16:39:57.688Z,2.03
2018-08-16T16:42:28.647Z,2.33
2018-08-16T16:44:58.438Z,2.53
2018-08-16T16:47:29.222Z,2.33
2018-08-16T16:49:59.769Z,2.17
2018-08-16T16:52:29.807Z,2.00
2018-08-16T16:54:59.631Z,2.33
2018-08-16T16:57:30.318Z,2.00
2018-08-16T17:00:01.136Z,2.40
2018-08-16T17:02:32.170Z,2.20
2018-08-16T17:05:02.093Z,1.83
2018-08-16T17:07:31.832Z,2.87
2018-08-16T17:10:01.704Z,2.30
2018-08-16T17:12:31.623Z,2.40
2018-08-16T17:15:01.455Z,2.40
2018-08-16T17:17:31.073Z,2.60
2018-08-16T17:20:01.060Z,2.50
2018-08-16T17:22:31.696Z,2.37
2018-08-16T17:25:01.830Z,2.87
2018-08-16T17:27:32.468Z,2.57
2018-08-16T17:30:03.239Z,2.43
2018-08-16T17:32:33.244Z,2.70
2018-08-16T17:35:04.247Z,2.57
2018-08-16T17:37:35.060Z,2.70
2018-08-16T17:40:05.808Z,2.70
2018-08-16T17:42:35.715Z,3.07
2018-08-16T17:45:05.544Z,2.90
2018-08-16T17:47:35.416Z,2.87
2018-08-16T17:50:05.763Z,2.80
2018-08-16T17:52:36.732Z,2.70
2018-08-16T17:55:07.703Z,2.57
2018-08-16T17:57:37.824Z,2.63
2018-08-16T18:00:08.655Z,3.17
2018-08-16T18:02:38.392Z,2.37
2018-08-16T18:05:09.067Z,2.20
2018-08-16T18:07:39.203Z,2.63
2018-08-16T18:10:10.034Z,2.90
2018-08-16T18:12:40.666Z,2.73
2018-08-16T18:15:11.739Z,2.57
2018-08-16T18:17:41.545Z,2.83
2018-08-16T18:20:12.033Z,2.93
2018-08-16T18:22:42.247Z,3.40
2018-08-16T18:25:12.081Z,3.17
2018-08-16T18:27:42.651Z,2.70
2018-08-16T18:30:13.664Z,2.70
2018-08-16T18:32:43.633Z,3.93
2018-08-16T18:35:13.351Z,3.17
2018-08-16T18:37:43.287Z,3.17
2018-08-16T18:40:13.959Z,2.83
2018-08-16T18:42:43.437Z,3.10
2018-08-16T18:45:12.776Z,3.17
2018-08-16T18:47:42.351Z,2.83
2018-08-16T18:50:11.444Z,3.00
2018-08-16T18:52:41.308Z,3.47
2018-08-16T18:55:11.131Z,2.93
2018-08-16T18:57:40.954Z,3.10
2018-08-16T19:00:10.795Z,2.77
2018-08-16T19:02:40.640Z,3.87
2018-08-16T19:05:10.514Z,2.70
2018-08-16T19:07:41.334Z,2.80
2018-08-16T19:10:11.160Z,3.57
2018-08-16T19:12:41.004Z,3.87
2018-08-16T19:15:10.865Z,3.13
2018-08-16T19:17:40.698Z,3.17
2018-08-16T19:20:10.527Z,3.53
2018-08-16T19:22:40.361Z,3.30
2018-08-16T19:25:10.202Z,3.43
2018-08-16T19:27:41.026Z,3.20
2018-08-16T19:30:10.924Z,3.80
2018-08-16T19:32:41.387Z,3.37
2018-08-16T19:35:11.563Z,3.20
2018-08-16T19:37:41.337Z,3.50
2018-08-16T19:40:11.248Z,3.70
2018-08-16T19:42:41.087Z,3.67
2018-08-16T19:45:10.910Z,3.90
2018-08-16T19:47:40.740Z,3.33
2018-08-16T19:50:11.411Z,3.70
2018-08-16T19:52:41.340Z,3.80
2018-08-16T19:55:11.165Z,3.67
2018-08-16T19:57:42.125Z,3.83
2018-08-16T20:00:11.976Z,4.33
2018-08-16T20:02:42.507Z,4.00
2018-08-16T20:05:12.572Z,4.10
2018-08-16T20:07:43.428Z,3.77
2018-08-16T20:10:14.268Z,4.50
2018-08-16T20:12:45.136Z,3.50
2018-08-16T20:15:15.027Z,3.60
2018-08-16T20:17:45.619Z,3.67
2018-08-16T20:20:15.702Z,3.77
2018-08-16T20:22:45.124Z,3.60
2018-08-16T20:25:14.399Z,3.23
2018-08-16T20:27:43.930Z,3.73
2018-08-16T20:30:13.077Z,3.97
2018-08-16T20:32:43.702Z,4.90
2018-08-16T20:35:12.765Z,3.83
2018-08-16T20:37:42.438Z,4.67
2018-08-16T20:40:11.451Z,3.73
2018-08-16T20:42:41.247Z,3.60
2018-08-16T20:45:12.027Z,4.10
2018-08-16T20:47:42.645Z,4.20
2018-08-16T20:50:13.583Z,4.10
2018-08-16T20:52:43.629Z,4.30
2018-08-16T20:55:13.462Z,4.13
2018-08-16T20:57:43.123Z,4.50
2018-08-16T21:00:13.148Z,4.33
2018-08-16T21:02:42.230Z,4.20
2018-08-16T21:05:11.487Z,4.10
2018-08-16T21:07:41.192Z,4.23
2018-08-16T21:10:12.450Z,4.67
2018-08-16T21:12:42.330Z,4.20
2018-08-16T21:15:12.068Z,4.30
2018-08-16T21:17:40.984Z,5.30
2018-08-16T21:20:10.063Z,4.90
2018-08-16T21:22:39.395Z,4.83
2018-08-16T21:25:09.367Z,5.07
2018-08-16T21:27:39.224Z,4.87
2018-08-16T21:30:09.104Z,4.90
2018-08-16T21:32:38.983Z,5.80
2018-08-16T21:35:07.843Z,4.20
2018-08-16T21:37:36.604Z,4.53
2018-08-16T21:40:06.877Z,4.93
2018-08-16T21:42:37.340Z,5.90
2018-08-16T21:45:07.224Z,5.70
2018-08-16T21:47:37.732Z,6.60
2018-08-16T21:50:07.890Z,5.47
2018-08-16T21:52:38.400Z,6.33
2018-08-16T21:55:09.695Z,5.67
2018-08-16T21:57:38.639Z,6.00
2018-08-16T22:00:08.924Z,5.70
